createdAt,value
2022-12-25T00:01:53.280Z,-1.91
2022-12-25T00:06:59.504Z,-1.78
2022-12-25T00:12:02.750Z,-1.67
2022-12-25T00:17:06.033Z,-1.61
2022-12-25T00:22:10.857Z,-1.57
2022-12-25T00:27:14.373Z,-1.54
2022-12-25T00:32:17.696Z,-1.52
2022-12-25T00:37:22.337Z,-1.52
2022-12-25T00:42:27.117Z,-1.51
2022-12-25T00:47:31.105Z,-1.59
2022-12-25T00:52:36.119Z,-1.49
2022-12-25T00:57:39.385Z,-1.43
2022-12-25T01:02:42.934Z,-1.45
2022-12-25T01:07:47.763Z,-1.49
2022-12-25T01:12:52.250Z,-1.55
2022-12-25T01:17:55.553Z,-1.58
2022-12-25T01:23:00.446Z,-1.62
2022-12-25T01:28:03.846Z,-1.62
2022-12-25T01:33:07.260Z,-1.67
2022-12-25T01:38:11.784Z,-1.66
2022-12-25T01:43:24.322Z,-1.71
2022-12-25T01:48:31.666Z,-1.75
2022-12-25T01:53:36.345Z,-1.77
2022-12-25T01:58:39.886Z,-1.80
2022-12-25T02:03:43.584Z,-1.72
2022-12-25T02:08:48.244Z,-1.68
2022-12-25T02:13:51.449Z,-1.66
2022-12-25T02:19:04.284Z,-1.65
2022-12-25T02:24:40.758Z,-1.66
2022-12-25T02:29:50.983Z,-1.67
2022-12-25T02:35:01.739Z,-1.69
2022-12-25T02:40:15.874Z,-1.66
2022-12-25T02:45:42.126Z,-1.70
2022-12-25T02:51:03.112Z,-1.79
2022-12-25T02:56:24.116Z,-1.92
2022-12-25T03:01:51.682Z,-2.09
2022-12-25T03:07:09.355Z,-2.28
2022-12-25T03:12:19.669Z,-2.53
2022-12-25T03:17:24.534Z,-2.72
2022-12-25T03:22:55.984Z,-2.90
2022-12-25T03:28:00.275Z,-3.13
2022-12-25T03:33:43.404Z,-2.97
2022-12-25T03:39:16.410Z,-2.95
2022-12-25T03:44:47.517Z,-2.91
2022-12-25T03:50:17.134Z,-2.88
2022-12-25T03:55:38.771Z,-2.87
2022-12-25T04:00:59.314Z,-2.84
2022-12-25T04:06:21.715Z,-2.78
2022-12-25T04:11:42.221Z,-2.74
2022-12-25T04:17:02.719Z,-2.70
2022-12-25T04:22:24.809Z,-2.73
2022-12-25T04:27:45.535Z,-2.71
2022-12-25T04:33:05.905Z,-2.75
2022-12-25T04:38:10.685Z,-2.79
2022-12-25T04:43:14.029Z,-2.88
2022-12-25T04:48:17.484Z,-2.97
2022-12-25T04:53:22.337Z,-3.05
2022-12-25T04:58:25.760Z,-3.13
2022-12-25T05:03:29.153Z,-3.14
2022-12-25T05:08:35.254Z,-3.12
2022-12-25T05:13:40.815Z,-3.31
2022-12-25T05:18:44.477Z,-3.25
2022-12-25T05:23:51.585Z,-3.45
2022-12-25T05:28:55.836Z,-3.40
2022-12-25T05:33:59.242Z,-3.33
2022-12-25T05:39:03.967Z,-3.33
2022-12-25T05:44:07.332Z,-3.33
2022-12-25T05:49:10.664Z,-3.38
2022-12-25T05:54:16.939Z,-3.46
2022-12-25T05:59:20.472Z,-3.56
2022-12-25T06:04:23.847Z,-3.51
2022-12-25T06:09:28.688Z,-3.45
2022-12-25T06:14:32.231Z,-3.52
2022-12-25T06:19:35.451Z,-3.58
2022-12-25T06:24:40.851Z,-3.62
2022-12-25T06:29:44.181Z,-3.63
2022-12-25T06:34:48.971Z,-3.65
2022-12-25T06:39:53.647Z,-3.62
2022-12-25T06:44:56.992Z,-3.57
2022-12-25T06:50:00.217Z,-3.47
2022-12-25T06:55:04.983Z,-3.43
2022-12-25T07:00:10.674Z,-3.47
2022-12-25T07:05:14.042Z,-3.50
2022-12-25T07:10:18.937Z,-3.33
2022-12-25T07:15:22.174Z,-3.28
2022-12-25T07:20:26.251Z,-3.25
2022-12-25T07:25:36.827Z,-3.21
2022-12-25T07:30:40.553Z,-3.14
2022-12-25T07:35:44.272Z,-3.05
2022-12-25T07:40:48.882Z,-2.98
2022-12-25T07:45:56.204Z,-2.97
2022-12-25T07:51:00.624Z,-3.05
2022-12-25T07:56:07.628Z,-3.17
2022-12-25T08:01:13.618Z,-3.27
2022-12-25T08:06:17.106Z,-3.15
2022-12-25T08:11:21.877Z,-3.10
2022-12-25T08:16:25.446Z,-2.92
2022-12-25T08:21:28.786Z,-2.93
2022-12-25T08:26:33.806Z,-2.95
2022-12-25T08:31:42.427Z,-2.91
2022-12-25T08:36:49.099Z,-2.86
2022-12-25T08:41:53.720Z,-2.82
2022-12-25T08:46:57.929Z,-2.80
2022-12-25T08:52:02.823Z,-2.85
2022-12-25T08:57:07.716Z,-2.88
2022-12-25T09:02:12.575Z,-2.79
2022-12-25T09:07:16.028Z,-2.89
2022-12-25T09:12:21.245Z,-2.78
2022-12-25T09:17:24.490Z,-2.87
2022-12-25T09:22:27.784Z,-2.94
2022-12-25T09:27:32.613Z,-3.01
2022-12-25T09:32:35.988Z,-3.03
2022-12-25T09:37:39.354Z,-3.07
2022-12-25T09:42:45.367Z,-3.02
2022-12-25T09:47:50.571Z,-3.08
2022-12-25T09:52:58.667Z,-3.02
2022-12-25T09:58:12.531Z,-3.05
2022-12-25T10:03:24.745Z,-2.95
2022-12-25T10:08:48.087Z,-3.02
2022-12-25T10:14:08.386Z,-2.99
2022-12-25T10:19:23.114Z,-2.99
2022-12-25T10:24:34.698Z,-2.99
2022-12-25T10:29:39.928Z,-3.00
2022-12-25T10:34:43.899Z,-3.05
2022-12-25T10:39:47.348Z,-3.04
2022-12-25T10:45:03.003Z,-3.07
2022-12-25T10:50:12.656Z,-3.13
2022-12-25T10:55:26.620Z,-3.24
2022-12-25T11:00:34.799Z,-3.23
2022-12-25T11:05:38.268Z,-3.30
2022-12-25T11:10:44.100Z,-3.28
2022-12-25T11:15:50.773Z,-3.42
2022-12-25T11:20:55.515Z,-3.41
2022-12-25T11:26:01.337Z,-3.34
2022-12-25T11:31:10.311Z,-3.23
2022-12-25T11:36:21.599Z,-3.37
2022-12-25T11:41:33.055Z,-3.38
2022-12-25T11:46:43.295Z,-3.43
2022-12-25T11:51:48.963Z,-3.40
2022-12-25T11:56:52.708Z,-3.34
2022-12-25T12:02:03.126Z,-3.47
2022-12-25T12:07:14.837Z,-3.36
2022-12-25T12:12:25.031Z,-3.46
2022-12-25T12:17:29.734Z,-3.53
2022-12-25T12:22:32.999Z,-3.56
2022-12-25T12:27:39.094Z,-3.70
2022-12-25T12:32:45.312Z,-3.78
2022-12-25T12:37:52.598Z,-3.78
2022-12-25T12:42:56.464Z,-3.73
2022-12-25T12:48:01.143Z,-3.73
2022-12-25T12:53:19.890Z,-3.84
2022-12-25T12:58:31.112Z,-3.82
2022-12-25T13:04:09.323Z,-3.87
2022-12-25T13:09:26.947Z,-3.83
2022-12-25T13:14:30.375Z,-3.82
2022-12-25T13:19:39.538Z,-3.84
2022-12-25T13:24:43.164Z,-3.88
2022-12-25T13:29:46.511Z,-3.90
2022-12-25T13:34:52.145Z,-3.92
2022-12-25T13:39:58.209Z,-3.98
2022-12-25T13:45:06.228Z,-4.04
2022-12-25T13:50:24.118Z,-4.12
2022-12-25T13:55:29.153Z,-3.89
2022-12-25T14:00:36.897Z,-3.98
2022-12-25T14:05:43.448Z,-3.87
2022-12-25T14:10:52.037Z,-3.80
2022-12-25T14:15:56.875Z,-3.77
2022-12-25T14:21:04.775Z,-4.03
2022-12-25T14:26:08.315Z,-3.84
2022-12-25T14:31:13.753Z,-3.86
2022-12-25T14:36:19.399Z,-3.85
2022-12-25T14:41:33.817Z,-3.79
2022-12-25T14:46:37.327Z,-3.75
2022-12-25T14:51:44.379Z,-3.74
2022-12-25T14:56:48.850Z,-3.73
2022-12-25T15:01:56.007Z,-3.79
2022-12-25T15:07:07.488Z,-3.88
2022-12-25T15:12:11.732Z,-3.94
2022-12-25T15:17:28.347Z,-4.01
2022-12-25T15:22:54.201Z,-4.02
2022-12-25T15:27:58.227Z,-4.05
2022-12-25T15:33:01.508Z,-4.12
2022-12-25T15:38:06.386Z,-4.22
2022-12-25T15:43:38.914Z,-4.26
2022-12-25T15:48:36.628Z,-4.30
2022-12-25T15:53:41.315Z,-4.44
2022-12-25T15:58:44.531Z,-4.58
2022-12-25T16:03:49.047Z,-4.81
2022-12-25T16:08:53.675Z,-4.77
2022-12-25T16:13:56.894Z,-4.75
2022-12-25T16:19:00.153Z,-4.70
2022-12-25T16:24:05.500Z,-4.70
2022-12-25T16:29:09.197Z,-4.65
2022-12-25T16:34:12.899Z,-4.58
2022-12-25T16:39:17.501Z,-4.54
2022-12-25T16:44:20.771Z,-4.51
2022-12-25T16:49:24.184Z,-4.53
2022-12-25T16:54:28.984Z,-4.63
2022-12-25T16:59:33.090Z,-4.64
2022-12-25T17:04:36.494Z,-4.59
2022-12-25T17:09:44.304Z,-4.54
2022-12-25T17:14:48.133Z,-4.52
2022-12-25T17:19:51.417Z,-4.47
2022-12-25T17:24:56.026Z,-4.43
2022-12-25T17:35:21.518Z,-4.37
2022-12-25T17:40:26.702Z,-4.35
2022-12-25T17:45:30.038Z,-4.34
2022-12-25T17:50:37.509Z,-4.37
2022-12-25T17:55:45.916Z,-4.31
2022-12-25T18:00:49.182Z,-4.27
2022-12-25T18:05:52.668Z,-4.29
2022-12-25T18:10:58.105Z,-4.52
2022-12-25T18:16:04.296Z,-4.39
2022-12-25T18:21:08.085Z,-4.55
2022-12-25T18:26:13.168Z,-4.38
2022-12-25T18:31:18.935Z,-4.44
2022-12-25T18:36:24.838Z,-4.55
2022-12-25T18:41:30.769Z,-4.41
2022-12-25T18:46:34.207Z,-4.46
2022-12-25T18:51:37.598Z,-4.49
2022-12-25T18:56:42.325Z,-4.45
2022-12-25T19:07:04.641Z,-4.35
2022-12-25T19:12:10.850Z,-4.29
2022-12-25T19:17:14.219Z,-4.27
2022-12-25T19:22:17.692Z,-4.27
2022-12-25T19:27:22.307Z,-4.21
2022-12-25T19:32:25.654Z,-4.18
2022-12-25T19:37:28.877Z,-4.18
2022-12-25T19:42:33.574Z,-4.14
2022-12-25T19:47:36.910Z,-4.19
2022-12-25T19:52:40.288Z,-4.25
2022-12-25T19:57:44.991Z,-4.26
2022-12-25T20:02:48.455Z,-4.26
2022-12-25T20:07:51.913Z,-4.22
2022-12-25T20:12:57.121Z,-4.18
2022-12-25T20:18:00.434Z,-4.16
2022-12-25T20:23:03.698Z,-4.14
2022-12-25T20:28:08.559Z,-4.15
2022-12-25T20:33:11.847Z,-4.17
2022-12-25T20:38:15.394Z,-4.16
2022-12-25T20:43:20.026Z,-4.19
2022-12-25T20:48:23.240Z,-4.25
2022-12-25T20:53:26.808Z,-4.29
2022-12-25T20:58:32.383Z,-4.27
2022-12-25T21:03:38.244Z,-4.26
2022-12-25T21:08:42.224Z,-4.28
2022-12-25T21:13:47.488Z,-4.24
2022-12-25T21:18:52.730Z,-4.23
2022-12-25T21:23:58.069Z,-4.23
2022-12-25T21:29:03.890Z,-4.23
2022-12-25T21:34:07.525Z,-4.27
2022-12-25T21:39:12.595Z,-4.39
2022-12-25T21:44:17.301Z,-4.30
2022-12-25T21:49:34.395Z,-4.29
2022-12-25T21:54:37.952Z,-4.28
2022-12-25T21:59:42.666Z,-4.28
2022-12-25T22:04:46.335Z,-4.31
2022-12-25T22:09:52.636Z,-4.32
2022-12-25T22:15:02.917Z,-4.36
2022-12-25T22:20:10.361Z,-4.42
2022-12-25T22:25:14.318Z,-4.45
2022-12-25T22:30:22.140Z,-4.60
2022-12-25T22:35:26.041Z,-4.57
2022-12-25T22:40:29.289Z,-4.49
2022-12-25T22:45:33.929Z,-4.45
2022-12-25T22:50:37.232Z,-4.45
2022-12-25T22:55:40.548Z,-4.46
2022-12-25T23:00:46.569Z,-4.49
2022-12-25T23:05:55.372Z,-4.50
2022-12-25T23:11:03.683Z,-4.67
2022-12-25T23:16:13.900Z,-4.50
2022-12-25T23:21:36.974Z,-4.46
2022-12-25T23:26:40.321Z,-4.44
2022-12-25T23:31:45.161Z,-4.43
2022-12-25T23:36:48.749Z,-4.46
2022-12-25T23:41:52.129Z,-4.47
2022-12-25T23:46:58.512Z,-4.44
2022-12-25T23:52:01.840Z,-4.44
2022-12-25T23:57:05.820Z,-4.44
